createdAt,value
2022-11-29T00:01:55.901Z,6.93
2022-11-29T00:04:22.786Z,6.38
2022-11-29T00:06:52.480Z,6.18
2022-11-29T00:09:19.281Z,6.70
2022-11-29T00:12:04.758Z,6.32
2022-11-29T00:14:31.623Z,7.85
2022-11-29T00:17:02.054Z,9.05
2022-11-29T00:19:29.759Z,9.38
2022-11-29T00:21:56.589Z,11.48
2022-11-29T00:24:23.573Z,11.48
2022-11-29T00:26:50.419Z,11.95
2022-11-29T00:29:17.271Z,11.40
2022-11-29T00:31:44.159Z,10.45
2022-11-29T00:34:11.886Z,11.25
2022-11-29T00:36:41.426Z,11.30
2022-11-29T00:39:11.711Z,11.30
2022-11-29T00:41:39.490Z,11.68
2022-11-29T00:44:06.493Z,11.73
2022-11-29T00:46:33.711Z,12.32
2022-11-29T00:49:00.776Z,13.52
2022-11-29T00:51:27.951Z,12.50
2022-11-29T00:53:55.048Z,13.35
2022-11-29T00:56:22.065Z,13.30
2022-11-29T00:58:49.457Z,14.07
2022-11-29T01:01:16.491Z,13.55
2022-11-29T01:03:43.477Z,13.05
2022-11-29T01:06:11.898Z,12.88
2022-11-29T01:08:41.848Z,13.95
2022-11-29T01:11:16.210Z,12.18
2022-11-29T01:13:43.316Z,15.07
2022-11-29T01:16:10.837Z,12.85
2022-11-29T01:18:37.809Z,12.90
2022-11-29T01:21:06.122Z,10.88
2022-11-29T01:23:33.465Z,12.57
2022-11-29T01:26:06.154Z,12.50
2022-11-29T01:28:36.406Z,11.55
2022-11-29T01:31:11.038Z,10.55
2022-11-29T01:33:40.959Z,10.75
2022-11-29T01:36:08.338Z,10.13
2022-11-29T01:38:35.669Z,11.43
2022-11-29T01:41:12.690Z,10.57
2022-11-29T01:44:01.602Z,10.75
2022-11-29T01:46:30.622Z,9.95
2022-11-29T01:49:23.031Z,10.88
2022-11-29T01:52:01.235Z,10.02
2022-11-29T01:54:29.049Z,9.90
2022-11-29T01:56:56.017Z,10.80
2022-11-29T01:59:23.932Z,10.30
2022-11-29T02:01:51.338Z,10.70
2022-11-29T02:04:21.330Z,10.48
2022-11-29T02:06:48.270Z,10.20
2022-11-29T02:09:19.701Z,11.00
2022-11-29T02:12:04.888Z,10.67
2022-11-29T02:14:49.968Z,10.88
2022-11-29T02:17:22.513Z,11.00
2022-11-29T02:20:15.364Z,10.55
2022-11-29T02:25:58.334Z,9.98
2022-11-29T02:28:44.509Z,10.70
2022-11-29T02:31:36.870Z,12.63
2022-11-29T02:34:31.634Z,11.98
2022-11-29T02:37:20.852Z,11.20
2022-11-29T02:40:09.739Z,11.60
2022-11-29T02:42:58.076Z,12.45
2022-11-29T02:45:46.614Z,12.82
2022-11-29T02:48:41.437Z,13.70
2022-11-29T02:51:43.110Z,12.57
2022-11-29T02:54:17.473Z,14.50
2022-11-29T02:56:56.570Z,13.75
2022-11-29T02:59:42.699Z,14.40
2022-11-29T03:02:22.812Z,14.13
2022-11-29T03:05:21.959Z,15.43
2022-11-29T03:07:51.766Z,15.45
2022-11-29T03:10:44.715Z,15.38
2022-11-29T03:15:57.837Z,14.38
2022-11-29T03:18:36.632Z,14.63
2022-11-29T03:21:19.587Z,15.70
2022-11-29T03:23:59.188Z,14.43
2022-11-29T03:26:45.861Z,15.25
2022-11-29T03:29:22.915Z,14.98
2022-11-29T03:32:28.913Z,15.07
2022-11-29T03:35:17.396Z,13.93
2022-11-29T03:37:56.693Z,14.52
2022-11-29T03:40:57.583Z,13.88
2022-11-29T03:43:46.826Z,13.90
2022-11-29T03:46:39.682Z,13.75
2022-11-29T03:51:54.574Z,12.65
2022-11-29T03:54:47.319Z,14.15
2022-11-29T03:57:14.198Z,14.15
2022-11-29T03:59:54.502Z,13.60
2022-11-29T04:02:37.338Z,13.20
2022-11-29T04:05:29.406Z,12.75
2022-11-29T04:08:13.804Z,12.20
2022-11-29T04:10:59.699Z,11.77
2022-11-29T04:13:40.807Z,10.95
2022-11-29T04:16:35.691Z,11.05
2022-11-29T04:19:27.042Z,10.85
2022-11-29T04:22:24.654Z,9.70
2022-11-29T04:25:13.575Z,9.48
2022-11-29T04:27:51.896Z,10.32
2022-11-29T04:30:20.627Z,10.40
2022-11-29T04:33:14.052Z,10.52
2022-11-29T04:36:18.113Z,12.85
2022-11-29T04:39:04.992Z,14.13
2022-11-29T04:41:58.724Z,15.13
2022-11-29T04:45:06.724Z,15.32
2022-11-29T04:47:54.722Z,14.38
2022-11-29T04:50:40.314Z,12.52
2022-11-29T04:53:25.826Z,12.63
2022-11-29T04:56:14.818Z,13.35
2022-11-29T04:58:50.362Z,13.32
2022-11-29T05:01:20.366Z,12.80
2022-11-29T05:04:06.880Z,12.23
2022-11-29T05:07:04.731Z,11.90
2022-11-29T05:10:06.918Z,12.15
2022-11-29T05:13:05.736Z,13.07
2022-11-29T05:15:39.566Z,13.27
2022-11-29T05:18:45.231Z,13.57
2022-11-29T05:21:26.791Z,13.73
2022-11-29T05:24:08.294Z,11.98
2022-11-29T05:26:52.288Z,12.80
2022-11-29T05:29:43.334Z,14.25
2022-11-29T05:32:54.621Z,13.60
2022-11-29T05:35:29.767Z,14.05
2022-11-29T05:38:08.263Z,14.13
2022-11-29T05:40:45.052Z,14.20
2022-11-29T05:43:49.616Z,14.32
2022-11-29T05:46:28.081Z,15.45
2022-11-29T05:49:05.066Z,12.95
2022-11-29T05:51:53.138Z,13.63
2022-11-29T05:54:44.360Z,13.45
2022-11-29T05:57:37.548Z,12.38
2022-11-29T06:00:09.570Z,11.82
2022-11-29T06:02:59.732Z,12.15
2022-11-29T06:05:38.252Z,12.38
2022-11-29T06:08:50.682Z,13.30
2022-11-29T06:11:50.753Z,13.17
2022-11-29T06:14:35.109Z,11.98
2022-11-29T06:17:39.701Z,12.70
2022-11-29T06:20:23.588Z,12.05
2022-11-29T06:23:12.181Z,12.35
2022-11-29T06:26:02.326Z,12.27
2022-11-29T06:28:55.306Z,10.70
2022-11-29T06:31:34.618Z,9.50
2022-11-29T06:34:14.385Z,8.68
2022-11-29T06:36:50.612Z,8.68
2022-11-29T06:39:18.769Z,8.30
2022-11-29T06:41:46.970Z,7.60
2022-11-29T06:44:14.154Z,7.32
2022-11-29T06:47:02.596Z,7.05
2022-11-29T06:50:14.882Z,7.60
2022-11-29T06:52:49.452Z,7.95
2022-11-29T06:55:27.614Z,9.50
2022-11-29T06:57:57.359Z,11.55
2022-11-29T07:00:32.180Z,13.27
2022-11-29T07:03:17.917Z,14.07
2022-11-29T07:05:46.500Z,14.23
2022-11-29T07:08:18.872Z,14.15
2022-11-29T07:13:17.944Z,10.50
2022-11-29T07:16:03.664Z,10.75
2022-11-29T07:19:03.924Z,10.40
2022-11-29T07:21:44.288Z,9.65
2022-11-29T07:24:26.286Z,9.05
2022-11-29T07:26:59.811Z,9.02
2022-11-29T07:29:42.059Z,9.57
2022-11-29T07:32:27.824Z,10.32
2022-11-29T07:35:02.314Z,9.32
2022-11-29T07:37:35.131Z,9.75
2022-11-29T07:40:16.406Z,9.70
2022-11-29T07:43:06.061Z,8.57
2022-11-29T07:45:34.211Z,9.85
2022-11-29T07:48:02.106Z,9.60
2022-11-29T07:50:29.013Z,9.00
2022-11-29T07:52:56.201Z,9.60
2022-11-29T07:55:24.665Z,9.88
2022-11-29T07:57:51.921Z,9.57
2022-11-29T08:00:19.319Z,10.00
2022-11-29T08:02:48.719Z,9.25
2022-11-29T08:05:16.051Z,10.02
2022-11-29T08:07:42.967Z,10.52
2022-11-29T08:10:12.562Z,9.35
2022-11-29T08:12:44.180Z,10.77
2022-11-29T08:15:11.331Z,10.30
2022-11-29T08:17:38.730Z,10.85
2022-11-29T08:20:07.573Z,11.10
2022-11-29T08:22:34.999Z,10.63
2022-11-29T08:25:05.154Z,10.93
2022-11-29T08:27:32.075Z,11.07
2022-11-29T08:29:59.037Z,10.77
2022-11-29T08:32:26.742Z,10.80
2022-11-29T08:34:53.764Z,11.55
2022-11-29T08:37:20.625Z,11.73
2022-11-29T08:39:47.453Z,11.32
2022-11-29T08:42:14.295Z,11.18
2022-11-29T08:44:41.257Z,11.70
2022-11-29T08:47:28.511Z,10.23
2022-11-29T08:50:01.196Z,11.98
2022-11-29T08:52:48.162Z,11.88
2022-11-29T08:55:16.146Z,10.85
2022-11-29T08:57:42.960Z,11.13
2022-11-29T09:00:10.528Z,11.25
2022-11-29T09:02:37.709Z,11.60
2022-11-29T09:05:06.131Z,10.95
2022-11-29T09:07:33.107Z,12.75
2022-11-29T09:10:06.948Z,12.15
2022-11-29T09:12:37.201Z,12.07
2022-11-29T09:15:05.880Z,11.02
2022-11-29T09:17:32.905Z,10.45
2022-11-29T09:19:59.884Z,11.02
2022-11-29T09:22:26.822Z,10.32
2022-11-29T09:24:53.786Z,10.65
2022-11-29T09:27:20.632Z,10.40
2022-11-29T09:29:47.565Z,10.48
2022-11-29T09:32:15.210Z,8.93
2022-11-29T09:34:42.371Z,9.18
2022-11-29T09:37:11.372Z,8.82
2022-11-29T09:39:41.886Z,9.48
2022-11-29T09:42:12.875Z,7.25
2022-11-29T09:44:59.319Z,7.47
2022-11-29T09:47:45.112Z,7.60
2022-11-29T09:50:12.122Z,7.57
2022-11-29T09:52:52.606Z,7.15
2022-11-29T09:55:38.346Z,6.80
2022-11-29T09:58:06.440Z,7.60
2022-11-29T10:00:33.306Z,7.07
2022-11-29T10:03:19.156Z,7.55
2022-11-29T10:05:49.908Z,7.28
2022-11-29T10:08:37.198Z,7.50
2022-11-29T10:11:28.424Z,7.40
2022-11-29T10:14:01.565Z,8.02
2022-11-29T10:16:50.778Z,7.70
2022-11-29T10:19:43.190Z,8.77
2022-11-29T10:22:10.116Z,8.27
2022-11-29T10:24:36.926Z,7.75
2022-11-29T10:27:38.108Z,8.45
2022-11-29T10:30:09.162Z,7.93
2022-11-29T10:32:36.074Z,8.52
2022-11-29T10:35:02.904Z,7.88
2022-11-29T10:37:35.209Z,9.20
2022-11-29T10:40:05.067Z,8.95
2022-11-29T10:42:52.357Z,9.30
2022-11-29T10:45:22.941Z,9.38
2022-11-29T10:47:49.955Z,8.27
2022-11-29T10:50:19.445Z,8.88
2022-11-29T10:52:46.279Z,9.52
2022-11-29T10:55:14.770Z,9.95
2022-11-29T10:58:28.370Z,9.68
2022-11-29T11:01:00.367Z,8.93
2022-11-29T11:03:37.982Z,9.05
2022-11-29T11:06:22.814Z,9.25
2022-11-29T11:08:57.601Z,9.77
2022-11-29T11:11:33.442Z,10.70
2022-11-29T11:14:05.343Z,9.07
2022-11-29T11:16:37.016Z,9.35
2022-11-29T11:19:25.828Z,9.00
2022-11-29T11:21:52.717Z,7.95
2022-11-29T11:24:43.879Z,8.48
2022-11-29T11:27:10.949Z,8.98
2022-11-29T11:29:42.361Z,8.98
2022-11-29T11:32:19.353Z,8.73
2022-11-29T11:34:58.788Z,10.05
2022-11-29T11:37:30.084Z,10.32
2022-11-29T11:39:59.864Z,11.48
2022-11-29T11:42:36.967Z,11.23
2022-11-29T11:45:13.161Z,11.70
2022-11-29T11:47:44.239Z,12.32
2022-11-29T11:50:16.575Z,12.75
2022-11-29T11:55:41.077Z,13.57
2022-11-29T11:58:15.505Z,13.32
2022-11-29T12:01:07.084Z,15.27
2022-11-29T12:04:02.754Z,13.77
2022-11-29T12:07:01.276Z,12.88
2022-11-29T12:09:36.324Z,13.30
2022-11-29T12:12:05.987Z,13.95
2022-11-29T12:14:51.710Z,14.48
2022-11-29T12:17:35.527Z,13.20
2022-11-29T12:20:24.512Z,13.57
2022-11-29T12:23:15.418Z,13.52
2022-11-29T12:26:13.703Z,13.20
2022-11-29T12:28:50.762Z,12.48
2022-11-29T12:31:29.471Z,14.02
2022-11-29T12:34:22.234Z,13.13
2022-11-29T12:37:07.550Z,11.45
2022-11-29T12:39:57.384Z,13.52
2022-11-29T12:42:26.608Z,12.55
2022-11-29T12:45:06.831Z,13.23
2022-11-29T12:47:58.924Z,13.75
2022-11-29T12:50:39.642Z,13.15
2022-11-29T12:53:15.862Z,12.93
2022-11-29T12:56:07.514Z,11.82
2022-11-29T12:58:59.026Z,12.85
2022-11-29T13:01:40.760Z,12.55
2022-11-29T13:04:12.185Z,13.40
2022-11-29T13:06:44.718Z,12.55
2022-11-29T13:09:23.703Z,12.43
2022-11-29T13:11:58.299Z,11.35
2022-11-29T13:14:43.640Z,9.60
2022-11-29T13:17:25.764Z,8.50
2022-11-29T13:19:57.156Z,8.07
2022-11-29T13:22:56.921Z,8.02
2022-11-29T13:25:41.264Z,7.50
2022-11-29T13:28:31.339Z,8.35
2022-11-29T13:31:11.589Z,7.63
2022-11-29T13:33:51.784Z,7.82
2022-11-29T13:36:33.175Z,7.05
2022-11-29T13:39:21.290Z,7.05
2022-11-29T13:42:02.997Z,7.53
2022-11-29T13:44:50.701Z,7.20
2022-11-29T13:47:18.530Z,7.50
2022-11-29T13:50:13.328Z,7.50
2022-11-29T13:52:49.219Z,7.57
2022-11-29T13:55:22.903Z,7.82
2022-11-29T13:58:16.661Z,7.45
2022-11-29T14:00:44.655Z,7.28
2022-11-29T14:03:26.430Z,7.18
2022-11-29T14:06:12.945Z,7.40
2022-11-29T14:09:19.670Z,7.63
2022-11-29T14:12:07.260Z,7.40
2022-11-29T14:14:48.500Z,7.93
2022-11-29T14:17:35.033Z,8.07
2022-11-29T14:20:25.204Z,8.25
2022-11-29T14:23:04.551Z,9.23
2022-11-29T14:25:52.246Z,9.07
2022-11-29T14:28:22.863Z,8.63
2022-11-29T14:30:53.902Z,8.63
2022-11-29T14:33:27.198Z,8.38
2022-11-29T14:36:09.240Z,9.30
2022-11-29T14:38:58.900Z,8.68
2022-11-29T14:41:52.421Z,8.98
2022-11-29T14:44:29.359Z,8.82
2022-11-29T14:47:06.476Z,8.68
2022-11-29T14:49:43.530Z,8.20
2022-11-29T14:52:18.981Z,8.50
2022-11-29T14:55:02.425Z,9.02
2022-11-29T14:57:48.114Z,8.50
2022-11-29T15:00:26.048Z,8.88
2022-11-29T15:03:07.561Z,8.95
2022-11-29T15:05:57.395Z,8.93
2022-11-29T15:08:27.220Z,8.70
2022-11-29T15:11:02.848Z,8.75
2022-11-29T15:13:43.565Z,9.77
2022-11-29T15:16:25.881Z,9.63
2022-11-29T15:19:21.806Z,9.52
2022-11-29T15:22:06.554Z,9.68
2022-11-29T15:24:51.862Z,9.52
2022-11-29T15:27:18.818Z,9.43
2022-11-29T15:29:48.611Z,10.25
2022-11-29T15:32:30.902Z,10.05
2022-11-29T15:34:59.587Z,10.60
2022-11-29T15:37:36.513Z,9.32
2022-11-29T15:40:23.313Z,9.70
2022-11-29T15:43:04.967Z,10.55
2022-11-29T15:45:37.354Z,10.32
2022-11-29T15:51:24.509Z,9.85
2022-11-29T15:54:11.661Z,9.68
2022-11-29T15:56:47.480Z,10.35
2022-11-29T15:59:19.003Z,10.77
2022-11-29T16:01:46.619Z,10.17
2022-11-29T16:04:18.069Z,10.45
2022-11-29T16:06:44.960Z,10.43
2022-11-29T16:09:14.778Z,10.02
2022-11-29T16:11:41.661Z,10.73
2022-11-29T16:14:11.622Z,11.00
2022-11-29T16:16:39.498Z,12.30
2022-11-29T16:19:21.741Z,10.88
2022-11-29T16:22:14.560Z,11.02
2022-11-29T16:25:05.228Z,11.05
2022-11-29T16:27:35.507Z,10.85
2022-11-29T16:30:02.449Z,11.57
2022-11-29T16:32:38.265Z,10.93
2022-11-29T16:35:24.411Z,11.65
2022-11-29T16:37:51.234Z,11.30
2022-11-29T16:40:24.874Z,11.82
2022-11-29T16:43:04.020Z,11.75
2022-11-29T16:45:38.472Z,11.40
2022-11-29T16:48:25.460Z,13.00
2022-11-29T16:51:11.153Z,12.20
2022-11-29T16:53:39.480Z,12.70
2022-11-29T16:56:11.069Z,12.40
2022-11-29T16:58:43.045Z,12.57
2022-11-29T17:01:26.980Z,14.35
2022-11-29T17:03:54.140Z,12.15
2022-11-29T17:06:22.619Z,13.40
2022-11-29T17:08:53.538Z,12.00
2022-11-29T17:11:20.406Z,12.95
2022-11-29T17:13:47.961Z,14.05
2022-11-29T17:16:15.666Z,14.00
2022-11-29T17:18:43.385Z,13.90
2022-11-29T17:21:26.443Z,13.32
2022-11-29T17:23:55.629Z,11.52
2022-11-29T17:26:22.463Z,13.10
2022-11-29T17:28:50.406Z,13.60
2022-11-29T17:31:19.568Z,14.35
2022-11-29T17:33:46.670Z,13.05
2022-11-29T17:36:18.568Z,13.48
2022-11-29T17:38:45.576Z,17.38
2022-11-29T17:41:14.903Z,14.40
2022-11-29T17:43:41.853Z,13.98
2022-11-29T17:46:09.464Z,13.38
2022-11-29T17:48:38.445Z,14.88
2022-11-29T17:51:13.512Z,15.73
2022-11-29T17:53:53.792Z,14.65
2022-11-29T17:56:22.511Z,14.93
2022-11-29T17:58:56.385Z,15.63
2022-11-29T18:01:27.135Z,16.30
2022-11-29T18:03:58.725Z,15.52
2022-11-29T18:06:27.547Z,15.25
2022-11-29T18:08:58.388Z,15.02
2022-11-29T18:11:42.998Z,15.05
2022-11-29T18:14:15.277Z,14.52
2022-11-29T18:16:42.534Z,14.43
2022-11-29T18:19:11.719Z,15.73
2022-11-29T18:21:41.443Z,15.57
2022-11-29T18:24:08.631Z,14.48
2022-11-29T18:26:36.508Z,15.23
2022-11-29T18:29:04.023Z,15.75
2022-11-29T18:31:32.495Z,14.90
2022-11-29T18:34:00.896Z,15.40
2022-11-29T18:36:35.277Z,14.95
2022-11-29T18:39:07.321Z,15.20
2022-11-29T18:41:34.428Z,14.82
2022-11-29T18:44:08.852Z,18.67
2022-11-29T18:46:37.390Z,16.30
2022-11-29T18:49:09.059Z,15.75
2022-11-29T18:51:38.852Z,16.52
2022-11-29T18:54:05.944Z,15.88
2022-11-29T18:56:34.517Z,17.00
2022-11-29T18:59:12.307Z,16.00
2022-11-29T19:01:43.039Z,17.70
2022-11-29T19:04:11.781Z,20.35
2022-11-29T19:06:40.414Z,17.52
2022-11-29T19:09:10.717Z,17.13
2022-11-29T19:11:37.705Z,16.20
2022-11-29T19:14:06.095Z,16.20
2022-11-29T19:16:33.860Z,16.08
2022-11-29T19:19:01.039Z,16.25
2022-11-29T19:21:31.757Z,17.75
2022-11-29T19:24:00.337Z,15.95
2022-11-29T19:26:28.070Z,16.85
2022-11-29T19:28:55.083Z,16.33
2022-11-29T19:31:27.141Z,16.13
2022-11-29T19:33:54.612Z,16.92
2022-11-29T19:36:26.052Z,16.65
2022-11-29T19:38:54.218Z,16.50
2022-11-29T19:41:28.189Z,17.30
2022-11-29T19:43:59.902Z,18.00
2022-11-29T19:46:40.598Z,18.75
2022-11-29T19:49:07.908Z,18.30
2022-11-29T19:51:37.052Z,17.80
2022-11-29T19:54:05.377Z,17.73
2022-11-29T19:56:32.678Z,18.73
2022-11-29T19:58:59.900Z,20.83
2022-11-29T20:01:36.069Z,19.38
2022-11-29T20:04:06.664Z,18.52
2022-11-29T20:06:33.509Z,20.52
2022-11-29T20:09:02.697Z,17.60
2022-11-29T20:11:29.660Z,18.45
2022-11-29T20:13:58.045Z,19.25
2022-11-29T20:16:25.113Z,19.33
2022-11-29T20:18:52.987Z,18.38
2022-11-29T20:21:21.610Z,19.05
2022-11-29T20:23:48.687Z,19.50
2022-11-29T20:26:17.454Z,18.55
2022-11-29T20:28:44.414Z,18.55
2022-11-29T20:31:15.982Z,18.52
2022-11-29T20:33:44.130Z,19.48
2022-11-29T20:36:48.430Z,19.30
2022-11-29T20:39:28.620Z,19.05
2022-11-29T20:42:29.089Z,19.85
2022-11-29T20:45:00.513Z,18.75
2022-11-29T20:47:58.001Z,20.15
2022-11-29T20:50:26.879Z,20.10
2022-11-29T20:53:26.670Z,19.65
2022-11-29T20:55:53.593Z,19.30
2022-11-29T20:58:20.423Z,19.23
2022-11-29T21:00:47.645Z,19.02
2022-11-29T21:03:16.680Z,18.42
2022-11-29T21:05:43.724Z,17.98
2022-11-29T21:08:10.746Z,18.90
2022-11-29T21:10:37.648Z,18.92
2022-11-29T21:13:04.659Z,19.33
2022-11-29T21:15:31.872Z,20.02
2022-11-29T21:18:01.793Z,18.38
2022-11-29T21:20:28.969Z,19.70
2022-11-29T21:23:18.890Z,19.13
2022-11-29T21:25:56.305Z,20.40
2022-11-29T21:28:25.623Z,17.58
2022-11-29T21:30:52.674Z,20.27
2022-11-29T21:33:19.821Z,19.73
2022-11-29T21:35:54.316Z,17.92
2022-11-29T21:38:22.249Z,19.00
2022-11-29T21:40:49.144Z,18.17
2022-11-29T21:43:15.978Z,19.52
2022-11-29T21:45:42.858Z,20.08
2022-11-29T21:48:29.670Z,20.25
2022-11-29T21:50:59.416Z,19.73
2022-11-29T21:53:26.376Z,18.42
2022-11-29T21:55:58.202Z,19.55
2022-11-29T21:58:25.984Z,21.00
2022-11-29T22:00:53.227Z,17.88
2022-11-29T22:03:20.359Z,19.85
2022-11-29T22:05:47.370Z,20.95
2022-11-29T22:08:14.354Z,20.70
2022-11-29T22:10:41.242Z,19.77
2022-11-29T22:13:08.161Z,19.40
2022-11-29T22:15:35.038Z,19.65
2022-11-29T22:18:01.957Z,20.55
2022-11-29T22:20:28.813Z,19.27
2022-11-29T22:22:58.715Z,21.48
2022-11-29T22:25:25.865Z,21.40
2022-11-29T22:27:52.660Z,20.88
2022-11-29T22:30:20.036Z,20.60
2022-11-29T22:32:47.063Z,21.23
2022-11-29T22:35:14.045Z,21.40
2022-11-29T22:37:44.053Z,20.05
2022-11-29T22:40:13.587Z,20.63
2022-11-29T22:42:42.550Z,20.90
2022-11-29T22:45:09.838Z,21.90
2022-11-29T22:47:36.884Z,21.45
2022-11-29T22:50:04.003Z,19.67
2022-11-29T22:52:33.022Z,21.08
2022-11-29T22:55:04.587Z,23.15
2022-11-29T22:57:32.071Z,20.48
2022-11-29T23:00:01.980Z,22.38
2022-11-29T23:02:32.064Z,22.38
2022-11-29T23:04:59.076Z,22.85
2022-11-29T23:07:28.327Z,20.67
2022-11-29T23:09:55.974Z,21.83
2022-11-29T23:12:25.891Z,22.77
2022-11-29T23:14:56.215Z,21.88
2022-11-29T23:17:23.941Z,21.75
2022-11-29T23:19:50.847Z,22.08
2022-11-29T23:22:17.659Z,23.13
2022-11-29T23:24:44.847Z,22.48
2022-11-29T23:27:11.892Z,20.45
2022-11-29T23:29:38.688Z,21.38
2022-11-29T23:32:06.192Z,21.60
2022-11-29T23:34:33.274Z,21.50
2022-11-29T23:37:00.218Z,20.40
2022-11-29T23:39:27.034Z,20.90
2022-11-29T23:41:53.812Z,19.92
2022-11-29T23:44:20.745Z,20.88
2022-11-29T23:46:47.737Z,20.55
2022-11-29T23:49:14.661Z,20.38
2022-11-29T23:51:41.474Z,21.27
2022-11-29T23:54:08.339Z,19.90
2022-11-29T23:56:35.477Z,20.27
2022-11-29T23:59:02.579Z,21.77
